26 November 2014 Space
GT Aviation logo and link to the homepage
GT Aviation logo and link to the homepage Space
Space

GT Aviation UK - Airfield Weather Information

 

Weather information for EGHH


7 minutes ago, at 04:50 UTC, the wind was blowing at a speed of 2.1 meters per second (4.6 miles per hour) from North in EGHH. The temperature was 7 degrees Celsius (45 degrees Fahrenheit), and the pressure was 1,012 hPa (29.88 inHg). The relative humidity was 100.0%. There were broken clouds at a height of 61 meter (200 feet). The visibility was 3.5 kilometers (2.2 miles). Current weather is Moderate Mist Light Rain .

The METAR this information has been retrieved from is: EGHH 260450Z 01004KT 3500 BR -RA BKN002 07/07 Q1012

Search again?
Enter ICAO code: and show the report in
Don't know the ICAO code of the airport you want weather for?

To see a graphical view of the weather for EGHH, click here to visit SkyLinkWeather

 



GT Aviation UK
PO Box 15, WEYMOUTH DT4 8DS, UK
Email jane@gtaviation.co.uk Web www.gtaviation.co.uk

Use of this website constitutes acceptance of our User Agreement

TYNT INSIGHT technology is in use on this website to monitor text and pictures being copied from it. A record is kept only of the content copied.